KSLK/SLK METAR and TAF weather

Enter ICAO airport designator
Station Type Date Time Source
KSLK METAR 2021/05/12 01:30 UTC NOAA

KSLK 120130Z AUTO VRB03KT 4SM -SN BR OVC008 03/02 A2995 RMK AO2 RAE20SNB20 CIG 004V014 P0001 T00280022


Station Type Date Time Source
KSLK Decoded METAR 2021/05/12 01:30 UTC NOAA

ADIRONDACK REGIONAL AIRPORT, NY, United States (KSLK) 44-24N 074-12W 498M
May 11, 2021 - 09:30 PM EDT / 2021.05.12 0130 UTC
Wind: Variable at 3 MPH (3 KT):0
Visibility: 4 mile(s):0
Sky conditions: overcast
Weather: light snow; mist
Precipitation last hour: 0.01 inches
Temperature: 37.0 F (2.8 C)
Dew Point: 36.0 F (2.2 C)
Relative Humidity: 95%
Pressure (altimeter): 29.95 in. Hg (1014 hPa)
ob: KSLK 120130Z AUTO VRB03KT 4SM -SN BR OVC008 03/02 A2995 RMK AO2 RAE20SNB20 CIG 004V014 P0001 T00280022
cycle: 1

Station Type Date Time Source
KSLK TAF 2021/05/11 18:39 UTC NOAA

TAF KSLK 111737Z 1118/1218 25014G22KT P6SM SCT050
FM112300 25011G19KT P6SM VCSH BKN022
FM120000 25010G17KT 4SM -SHRA BR BKN018
FM120400 25004KT P6SM BKN009
FM121300 30007KT P6SM BKN025

Example: see airport list